Time;durP1;ratioP1;P1;durP2;ratioP2;P2;SDS_P1;SDS_P2;PMS_P1;PMS_P2;Temp;Humidity;BMP_temperature;BMP_pressure;BME280_temperature;BME280_humidity;BME280_pressure;Samples;Min_cycle;Max_cycle;Signal;HPM_P1;HPM_P2
2022/10/26 00:02:25;;;;;;;;;;;9.20;99.90;;;;;;5104414;28;19927;-71
2022/10/26 00:04:51;;;;;;;;;;;9.20;99.90;;;;;;5103926;28;19927;-71
2022/10/26 00:07:18;;;;;;;;;;;9.20;99.90;;;;;;5104221;28;20278;-70
2022/10/26 00:09:44;;;;;;;;;;;9.20;99.90;;;;;;5104304;28;19955;-71
2022/10/26 00:12:11;;;;;;;;;;;9.20;99.90;;;;;;5104221;28;19959;-70
2022/10/26 00:14:39;;;;;;;;;;;9.20;99.90;;;;;;5103327;28;20007;-70
2022/10/26 00:17:06;;;;;;;;;;;9.20;99.90;;;;;;5104012;28;19920;-70
2022/10/26 00:19:33;;;;;;;;;;;9.20;99.90;;;;;;5104239;28;19982;-71
2022/10/26 00:22:01;;;;;;;;;;;9.20;99.90;;;;;;5101971;28;19977;-70
2022/10/26 00:24:28;;;;;;;;;;;9.20;99.90;;;;;;5103833;28;19920;-70
2022/10/26 00:26:54;;;;;;;;;;;9.20;99.90;;;;;;5099956;28;19983;-70
2022/10/26 00:29:21;;;;;;;;;;;9.20;99.90;;;;;;5103699;28;19920;-70
2022/10/26 00:31:49;;;;;;;;;;;9.20;99.90;;;;;;5102732;28;19931;-70
2022/10/26 00:34:15;;;;;;;;;;;9.20;99.90;;;;;;5103131;28;19926;-70
2022/10/26 00:36:42;;;;;;;;;;;9.20;99.90;;;;;;5101760;28;19920;-70
2022/10/26 00:39:12;;;;;;;;;;;9.20;99.90;;;;;;5103705;28;19956;-70
2022/10/26 00:41:39;;;;;;;;;;;9.20;99.90;;;;;;5103615;28;20207;-70
2022/10/26 00:44:20;;;;;;;;;;;9.30;99.90;;;;;;5103867;28;19954;-70
2022/10/26 00:46:47;;;;;;;;;;;9.30;99.90;;;;;;5101964;28;19920;-71
2022/10/26 00:49:16;;;;;;;;;;;9.30;99.90;;;;;;5103602;28;19931;-70
2022/10/26 00:51:46;;;;;;;;;;;9.30;99.90;;;;;;5103651;28;19919;-70
2022/10/26 00:54:17;;;;;;;;;;;9.30;99.90;;;;;;5103377;28;19920;-70
2022/10/26 00:56:44;;;;;;;;;;;9.30;99.90;;;;;;5102638;28;19920;-70
2022/10/26 00:59:12;;;;;;;;;;;9.30;99.90;;;;;;5103604;28;19942;-70
2022/10/26 01:01:40;;;;;;;;;;;9.40;99.90;;;;;;5103599;28;19920;-70
2022/10/26 01:04:07;;;;;;;;;;;9.40;99.90;;;;;;5103543;28;19991;-70
2022/10/26 01:06:36;;;;;;;;;;;9.40;99.90;;;;;;5102623;28;19984;-70
2022/10/26 01:09:03;;;;;;;;;;;9.40;99.90;;;;;;5103350;28;19920;-70
2022/10/26 01:11:29;;;;;;;;;;;9.40;99.90;;;;;;5103360;28;19926;-70
2022/10/26 01:13:56;;;;;;;;;;;9.40;99.90;;;;;;5103207;28;20211;-71
2022/10/26 01:16:29;;;;;;;;;;;9.40;99.90;;;;;;5102662;28;19920;-70
2022/10/26 01:19:00;;;;;;;;;;;9.40;99.90;;;;;;5103858;28;19920;-70
2022/10/26 01:21:43;;;;;;;;;;;9.40;99.90;;;;;;5103501;28;19988;-70
2022/10/26 01:24:22;;;;;;;;;;;9.40;99.90;;;;;;5103089;28;20215;-70
2022/10/26 01:27:04;;;;;;;;;;;9.50;99.90;;;;;;5102690;28;19942;-69
2022/10/26 01:29:48;;;;;;;;;;;9.50;99.90;;;;;;5103198;28;20294;-70
2022/10/26 01:32:19;;;;;;;;;;;9.40;99.90;;;;;;5071992;28;20123;-71
2022/10/26 01:34:47;;;;;;;;;;;9.40;99.90;;;;;;5102648;28;19924;-70
2022/10/26 01:37:17;;;;;;;;;;;9.40;99.90;;;;;;5102733;28;20259;-70
2022/10/26 01:39:46;;;;;;;;;;;9.40;99.90;;;;;;5103014;28;20234;-70
2022/10/26 01:42:13;;;;;;;;;;;9.30;99.90;;;;;;5102991;28;19926;-70
2022/10/26 01:44:42;;;;;;;;;;;9.30;99.90;;;;;;5102576;28;19959;-70
2022/10/26 01:47:09;;;;;;;;;;;9.30;99.90;;;;;;5105407;28;19926;-70
2022/10/26 01:49:39;;;;;;;;;;;9.30;99.90;;;;;;5106966;28;20123;-69
2022/10/26 01:52:06;;;;;;;;;;;9.30;99.90;;;;;;5107120;28;19920;-71
2022/10/26 01:54:34;;;;;;;;;;;9.30;99.90;;;;;;5106145;28;20170;-70
2022/10/26 01:57:02;;;;;;;;;;;9.30;99.90;;;;;;5106960;28;19934;-70
2022/10/26 01:59:32;;;;;;;;;;;9.30;99.90;;;;;;5106781;28;19927;-70
2022/10/26 02:02:18;;;;;;;;;;;9.30;99.90;;;;;;5106553;28;20115;-70
2022/10/26 02:04:51;;;;;;;;;;;9.30;99.90;;;;;;5105745;28;20224;-70
2022/10/26 02:07:24;;;;;;;;;;;9.30;99.90;;;;;;5106558;28;20271;-70
2022/10/26 02:09:56;;;;;;;;;;;9.30;99.90;;;;;;5106546;28;19920;-70
2022/10/26 02:12:27;;;;;;;;;;;9.40;99.90;;;;;;5106520;28;20222;-70
2022/10/26 02:14:57;;;;;;;;;;;9.40;99.90;;;;;;5105672;28;20112;-70
2022/10/26 02:17:27;;;;;;;;;;;9.40;99.90;;;;;;5106604;28;19920;-70
2022/10/26 02:19:57;;;;;;;;;;;9.40;99.90;;;;;;5106474;28;19934;-70
2022/10/26 02:22:25;;;;;;;;;;;9.40;99.90;;;;;;5106542;28;19920;-70
2022/10/26 02:24:52;;;;;;;;;;;9.50;99.90;;;;;;5105899;28;20245;-70
2022/10/26 02:27:20;;;;;;;;;;;9.50;99.90;;;;;;5106379;28;19926;-70
2022/10/26 02:29:48;;;;;;;;;;;9.50;99.90;;;;;;5106040;28;19926;-70
2022/10/26 02:32:15;;;;;;;;;;;9.50;99.90;;;;;;5105941;28;19927;-70
2022/10/26 02:34:44;;;;;;;;;;;9.50;99.90;;;;;;5105532;28;19926;-70
2022/10/26 02:37:13;;;;;;;;;;;9.50;99.90;;;;;;5106189;28;19956;-70
2022/10/26 02:39:41;;;;;;;;;;;9.50;99.90;;;;;;5106098;28;19920;-70
2022/10/26 02:42:09;;;;;;;;;;;9.60;99.90;;;;;;5106019;28;19930;-70
2022/10/26 02:44:38;;;;;;;;;;;9.60;99.90;;;;;;5105206;28;19920;-70
2022/10/26 02:47:05;;;;;;;;;;;9.60;99.90;;;;;;5106032;28;19983;-70
2022/10/26 02:49:32;;;;;;;;;;;9.60;99.90;;;;;;5106176;28;19920;-70
2022/10/26 02:52:01;;;;;;;;;;;9.60;99.90;;;;;;5105577;28;19983;-70
2022/10/26 02:54:32;;;;;;;;;;;9.60;99.90;;;;;;5105485;28;19920;-70
2022/10/26 02:57:00;;;;;;;;;;;9.60;99.90;;;;;;5105265;28;19927;-70
2022/10/26 02:59:28;;;;;;;;;;;9.60;99.90;;;;;;5104354;28;19926;-70
2022/10/26 03:01:55;;;;;;;;;;;9.70;99.90;;;;;;5105350;28;19928;-69
2022/10/26 03:04:27;;;;;;;;;;;9.70;99.90;;;;;;5105152;28;19920;-70
2022/10/26 03:06:54;;;;;;;;;;;9.70;99.90;;;;;;5104626;28;19971;-70
2022/10/26 03:09:21;;;;;;;;;;;9.60;99.90;;;;;;5105639;28;20110;-70
2022/10/26 03:11:50;;;;;;;;;;;9.70;99.90;;;;;;5102504;28;19983;-70
2022/10/26 03:14:17;;;;;;;;;;;9.70;99.90;;;;;;5105594;28;19927;-69
2022/10/26 03:16:43;;;;;;;;;;;9.70;99.90;;;;;;5104597;28;19920;-69
2022/10/26 03:19:10;;;;;;;;;;;9.70;99.90;;;;;;5105305;28;20144;-69
2022/10/26 03:21:36;;;;;;;;;;;9.70;99.90;;;;;;5103788;28;19980;-70
2022/10/26 03:24:03;;;;;;;;;;;9.70;99.90;;;;;;5105368;28;19927;-70
2022/10/26 03:26:30;;;;;;;;;;;9.70;99.90;;;;;;5101682;28;19927;-70
2022/10/26 03:28:58;;;;;;;;;;;9.70;99.90;;;;;;5105653;28;19925;-70
2022/10/26 03:31:24;;;;;;;;;;;9.80;99.90;;;;;;5105270;28;19920;-69
2022/10/26 03:33:51;;;;;;;;;;;9.80;99.90;;;;;;5104866;28;19987;-69
2022/10/26 03:36:18;;;;;;;;;;;9.80;99.90;;;;;;5104415;28;19982;-70
2022/10/26 03:38:44;;;;;;;;;;;9.80;99.90;;;;;;5105179;28;19926;-70
2022/10/26 03:41:11;;;;;;;;;;;9.90;99.90;;;;;;5104857;28;19983;-69
2022/10/26 03:43:37;;;;;;;;;;;9.90;99.90;;;;;;5104906;28;19963;-69
2022/10/26 03:46:05;;;;;;;;;;;9.90;99.90;;;;;;5104161;28;19979;-69
2022/10/26 03:48:32;;;;;;;;;;;9.90;99.90;;;;;;5105033;28;20195;-69
2022/10/26 03:50:59;;;;;;;;;;;9.90;99.90;;;;;;5104678;28;19956;-70
2022/10/26 03:53:25;;;;;;;;;;;10.00;99.90;;;;;;5104800;28;20096;-69
2022/10/26 03:55:52;;;;;;;;;;;9.90;99.90;;;;;;5119266;22;19989;-90
2022/10/26 03:58:19;;;;;;;;;;;10.00;99.90;;;;;;5057101;28;19949;-91
2022/10/26 04:03:16;;;;;;;;;;;10.00;99.90;;;;;;5081652;28;20100;-68
2022/10/26 04:05:42;;;;;;;;;;;10.00;99.90;;;;;;5083203;28;19920;-68
2022/10/26 04:08:09;;;;;;;;;;;10.00;99.90;;;;;;5083748;28;20475;-68
2022/10/26 04:10:35;;;;;;;;;;;10.00;99.90;;;;;;5083672;28;19987;-68
2022/10/26 04:13:02;;;;;;;;;;;10.00;99.90;;;;;;5084088;28;19999;-68
2022/10/26 04:15:29;;;;;;;;;;;10.10;99.90;;;;;;5082759;28;19988;-68
2022/10/26 04:17:56;;;;;;;;;;;10.10;99.90;;;;;;5076917;28;19984;-68
2022/10/26 04:20:25;;;;;;;;;;;10.10;99.90;;;;;;5072085;28;19924;-68
2022/10/26 04:23:00;;;;;;;;;;;10.10;99.90;;;;;;5078093;28;19920;-68
2022/10/26 04:25:27;;;;;;;;;;;10.10;99.90;;;;;;5080665;28;20185;-68
2022/10/26 04:27:54;;;;;;;;;;;10.10;99.90;;;;;;5083497;28;20162;-68
2022/10/26 04:30:21;;;;;;;;;;;10.10;99.90;;;;;;5083261;28;19996;-68
2022/10/26 04:32:47;;;;;;;;;;;10.10;99.90;;;;;;5079192;28;19921;-68
2022/10/26 04:35:14;;;;;;;;;;;10.10;99.90;;;;;;5081013;28;20022;-68
2022/10/26 04:37:42;;;;;;;;;;;10.10;99.90;;;;;;5074855;28;19920;-68
2022/10/26 04:40:09;;;;;;;;;;;10.20;99.90;;;;;;5074214;28;19927;-68
2022/10/26 04:42:42;;;;;;;;;;;10.10;99.90;;;;;;5083505;28;19920;-68
2022/10/26 04:45:10;;;;;;;;;;;10.10;99.90;;;;;;5082677;28;19928;-68
2022/10/26 04:47:36;;;;;;;;;;;10.20;99.90;;;;;;5083523;28;20115;-68
2022/10/26 04:50:03;;;;;;;;;;;10.10;99.90;;;;;;5083282;28;19983;-67
2022/10/26 04:52:30;;;;;;;;;;;10.20;99.90;;;;;;5080076;28;19927;-68
2022/10/26 04:54:59;;;;;;;;;;;10.20;99.90;;;;;;5080425;28;19928;-68
2022/10/26 04:57:30;;;;;;;;;;;10.20;99.90;;;;;;5081685;28;19920;-67
2022/10/26 04:59:57;;;;;;;;;;;10.20;99.90;;;;;;5083640;28;19996;-68
2022/10/26 05:02:24;;;;;;;;;;;10.20;99.90;;;;;;5083195;28;19955;-68
2022/10/26 05:04:50;;;;;;;;;;;10.30;99.90;;;;;;5082307;28;19929;-68
2022/10/26 05:07:17;;;;;;;;;;;10.30;99.90;;;;;;5083166;28;19999;-68
2022/10/26 05:09:43;;;;;;;;;;;10.30;99.90;;;;;;5082915;28;19951;-68
2022/10/26 05:12:11;;;;;;;;;;;10.30;99.90;;;;;;5083257;28;19959;-68
2022/10/26 05:14:38;;;;;;;;;;;10.40;99.90;;;;;;5082286;28;19928;-69
2022/10/26 05:17:05;;;;;;;;;;;10.40;99.90;;;;;;5083088;28;19926;-68
2022/10/26 05:19:31;;;;;;;;;;;10.40;99.90;;;;;;5083089;28;19952;-67
2022/10/26 05:21:58;;;;;;;;;;;10.40;99.90;;;;;;5085060;28;19927;-70
2022/10/26 05:24:24;;;;;;;;;;;10.40;99.90;;;;;;5087064;28;19927;-67
2022/10/26 05:26:51;;;;;;;;;;;10.50;99.90;;;;;;5085873;28;19947;-70
2022/10/26 05:29:19;;;;;;;;;;;10.50;99.90;;;;;;5086720;28;19987;-70
2022/10/26 05:31:46;;;;;;;;;;;10.50;99.90;;;;;;5086863;28;19987;-71
2022/10/26 05:34:12;;;;;;;;;;;10.60;99.90;;;;;;5087103;28;19987;-68
2022/10/26 05:36:39;;;;;;;;;;;10.60;99.90;;;;;;5085898;28;19927;-69
2022/10/26 05:39:05;;;;;;;;;;;10.70;99.90;;;;;;5086710;28;19991;-68
2022/10/26 05:41:32;;;;;;;;;;;10.70;99.90;;;;;;5086534;28;19991;-68
2022/10/26 05:43:59;;;;;;;;;;;10.70;99.90;;;;;;5086567;28;20176;-68
2022/10/26 05:46:27;;;;;;;;;;;10.80;99.90;;;;;;5085508;28;19944;-68
2022/10/26 05:48:53;;;;;;;;;;;10.80;99.90;;;;;;5086623;28;20004;-68
2022/10/26 05:51:20;;;;;;;;;;;10.80;99.90;;;;;;5086314;28;19951;-68
2022/10/26 05:53:47;;;;;;;;;;;10.90;99.90;;;;;;5086497;28;19991;-68
2022/10/26 05:56:17;;;;;;;;;;;10.90;99.90;;;;;;5082937;28;19920;-68
2022/10/26 05:58:45;;;;;;;;;;;11.00;99.90;;;;;;5086385;28;19999;-69
2022/10/26 06:01:17;;;;;;;;;;;11.00;99.90;;;;;;5086336;28;19992;-68
2022/10/26 06:03:51;;;;;;;;;;;11.00;99.90;;;;;;5086512;28;19927;-68
2022/10/26 06:06:18;;;;;;;;;;;11.00;99.90;;;;;;5085113;28;19927;-68
2022/10/26 06:08:45;;;;;;;;;;;11.00;99.90;;;;;;5085956;28;19927;-68
2022/10/26 06:11:12;;;;;;;;;;;11.00;99.90;;;;;;5085862;28;19956;-68
2022/10/26 06:13:39;;;;;;;;;;;11.00;99.90;;;;;;5085900;28;19984;-68
2022/10/26 06:16:24;;;;;;;;;;;11.00;99.90;;;;;;5085236;28;19927;-68
2022/10/26 06:18:57;;;;;;;;;;;11.00;99.90;;;;;;5086029;28;19983;-68
2022/10/26 06:21:30;;;;;;;;;;;11.00;99.90;;;;;;5085620;28;19988;-69
2022/10/26 06:24:01;;;;;;;;;;;11.10;99.90;;;;;;5085836;28;19987;-68
2022/10/26 06:26:33;;;;;;;;;;;11.00;99.90;;;;;;5085107;28;19959;-68
2022/10/26 06:29:03;;;;;;;;;;;11.10;99.90;;;;;;5085753;28;19983;-68
2022/10/26 06:31:30;;;;;;;;;;;11.10;99.90;;;;;;5086265;28;20006;-68
2022/10/26 06:33:59;;;;;;;;;;;11.20;99.90;;;;;;5085550;28;19991;-68
2022/10/26 06:36:26;;;;;;;;;;;11.10;99.90;;;;;;5084771;28;19943;-68
2022/10/26 06:38:55;;;;;;;;;;;11.20;99.90;;;;;;5086127;28;19928;-68
2022/10/26 06:41:23;;;;;;;;;;;11.20;99.90;;;;;;5077856;28;19921;-68
2022/10/26 06:43:51;;;;;;;;;;;11.20;99.90;;;;;;5071433;28;20092;-69
2022/10/26 06:46:24;;;;;;;;;;;11.20;99.90;;;;;;5081409;28;19920;-68
2022/10/26 06:48:53;;;;;;;;;;;11.30;99.90;;;;;;5065580;28;19921;-68
2022/10/26 06:51:22;;;;;;;;;;;11.30;99.90;;;;;;5074094;28;20224;-69
2022/10/26 06:53:53;;;;;;;;;;;11.40;99.90;;;;;;5085406;28;19943;-68
2022/10/26 06:56:20;;;;;;;;;;;11.40;99.90;;;;;;5084685;28;19920;-68
2022/10/26 06:58:48;;;;;;;;;;;11.40;99.90;;;;;;5085565;28;19951;-69
2022/10/26 07:01:15;;;;;;;;;;;11.40;99.90;;;;;;5068005;28;20238;-69
2022/10/26 07:03:42;;;;;;;;;;;11.50;99.90;;;;;;5084738;28;19921;-68
2022/10/26 07:06:08;;;;;;;;;;;11.60;99.90;;;;;;5084371;28;19983;-68
2022/10/26 07:08:36;;;;;;;;;;;11.60;99.90;;;;;;5084942;28;19920;-68
2022/10/26 07:11:04;;;;;;;;;;;11.60;99.90;;;;;;5084861;28;19983;-69
2022/10/26 07:13:31;;;;;;;;;;;11.70;99.90;;;;;;5084320;28;19920;-68
2022/10/26 07:15:57;;;;;;;;;;;11.70;99.90;;;;;;5081686;28;19987;-68
2022/10/26 07:18:24;;;;;;;;;;;11.70;99.90;;;;;;5084727;28;20254;-68
2022/10/26 07:20:51;;;;;;;;;;;11.70;99.90;;;;;;5084788;28;19988;-68
2022/10/26 07:23:17;;;;;;;;;;;11.70;99.90;;;;;;5084415;28;19927;-68
2022/10/26 07:25:45;;;;;;;;;;;11.80;99.90;;;;;;5079453;28;19927;-69
2022/10/26 07:28:12;;;;;;;;;;;11.80;99.90;;;;;;5082927;28;20119;-69
2022/10/26 07:30:39;;;;;;;;;;;11.80;99.90;;;;;;5084619;28;20223;-68
2022/10/26 07:33:07;;;;;;;;;;;11.80;99.90;;;;;;5084470;28;19954;-68
2022/10/26 07:35:34;;;;;;;;;;;11.90;99.90;;;;;;5083738;28;19927;-68
2022/10/26 07:38:01;;;;;;;;;;;11.90;99.90;;;;;;5084459;28;19936;-69
2022/10/26 07:40:28;;;;;;;;;;;12.00;99.90;;;;;;5084304;28;19926;-69
2022/10/26 07:42:57;;;;;;;;;;;11.90;99.90;;;;;;5084163;28;19920;-69
2022/10/26 07:45:24;;;;;;;;;;;12.00;99.90;;;;;;5074400;28;19920;-69
2022/10/26 07:47:51;;;;;;;;;;;12.00;99.90;;;;;;5068149;28;19983;-68
2022/10/26 07:50:17;;;;;;;;;;;12.00;99.90;;;;;;5066330;28;20179;-69
2022/10/26 07:52:44;;;;;;;;;;;12.10;99.90;;;;;;5084111;28;19951;-69
2022/10/26 07:55:11;;;;;;;;;;;12.10;99.90;;;;;;5082979;28;19992;-69
2022/10/26 07:57:38;;;;;;;;;;;12.20;99.90;;;;;;5084152;28;19983;-69
2022/10/26 08:00:07;;;;;;;;;;;12.20;99.90;;;;;;5083977;28;20200;-68
2022/10/26 08:02:34;;;;;;;;;;;12.20;99.90;;;;;;5084105;28;20110;-68
2022/10/26 08:05:01;;;;;;;;;;;12.30;99.90;;;;;;5083327;28;19920;-68
2022/10/26 08:07:27;;;;;;;;;;;12.20;99.90;;;;;;5080901;28;20286;-68
2022/10/26 08:09:54;;;;;;;;;;;12.20;99.90;;;;;;5082522;28;20259;-68
2022/10/26 08:12:21;;;;;;;;;;;12.30;99.90;;;;;;5083953;28;19987;-69
2022/10/26 08:14:47;;;;;;;;;;;12.30;99.90;;;;;;5083267;28;20000;-69
2022/10/26 08:17:16;;;;;;;;;;;12.40;99.90;;;;;;5081522;28;20194;-69
2022/10/26 08:19:43;;;;;;;;;;;12.40;99.90;;;;;;5083474;28;20255;-69
2022/10/26 08:22:10;;;;;;;;;;;12.50;99.90;;;;;;5083550;28;19955;-69
2022/10/26 08:24:36;;;;;;;;;;;12.50;99.90;;;;;;5082979;28;19983;-69
2022/10/26 08:27:03;;;;;;;;;;;12.50;99.90;;;;;;5081454;28;19987;-69
2022/10/26 08:29:29;;;;;;;;;;;12.60;99.90;;;;;;5083471;28;20238;-69
2022/10/26 08:31:56;;;;;;;;;;;12.60;99.90;;;;;;5083541;28;19935;-68
2022/10/26 08:34:24;;;;;;;;;;;12.60;99.90;;;;;;5083567;28;20146;-69
2022/10/26 08:36:51;;;;;;;;;;;12.60;99.90;;;;;;5082545;28;19988;-69
2022/10/26 08:39:18;;;;;;;;;;;12.60;99.90;;;;;;5080938;28;19927;-69
2022/10/26 08:41:45;;;;;;;;;;;12.60;99.90;;;;;;5083226;28;19996;-69
2022/10/26 08:44:18;;;;;;;;;;;12.60;99.90;;;;;;5083278;28;19920;-69
2022/10/26 08:46:46;;;;;;;;;;;12.70;99.90;;;;;;5075581;28;20212;-69
2022/10/26 08:49:18;;;;;;;;;;;12.70;99.90;;;;;;5081972;28;19920;-69
2022/10/26 08:51:47;;;;;;;;;;;12.80;99.90;;;;;;5083171;28;19928;-69
2022/10/26 08:54:15;;;;;;;;;;;12.80;99.90;;;;;;5083228;28;20115;-68
2022/10/26 08:56:42;;;;;;;;;;;12.80;99.90;;;;;;5081305;28;19920;-68
2022/10/26 08:59:12;;;;;;;;;;;12.90;99.90;;;;;;5080866;28;19921;-68
2022/10/26 09:01:38;;;;;;;;;;;13.00;99.90;;;;;;5082826;28;20283;-68
2022/10/26 09:04:09;;;;;;;;;;;13.00;99.90;;;;;;5082891;28;19989;-69
2022/10/26 09:06:41;;;;;;;;;;;13.10;99.90;;;;;;5082343;28;19927;-69
2022/10/26 09:09:12;;;;;;;;;;;13.10;99.90;;;;;;5083170;28;19921;-69
2022/10/26 09:11:49;;;;;;;;;;;13.20;99.90;;;;;;5083173;28;19926;-69
2022/10/26 09:14:18;;;;;;;;;;;13.20;99.90;;;;;;5082876;28;20176;-69
2022/10/26 09:16:50;;;;;;;;;;;13.30;99.90;;;;;;5082237;28;20138;-69
2022/10/26 09:19:23;;;;;;;;;;;13.40;99.90;;;;;;5083362;28;19988;-68
2022/10/26 09:21:54;;;;;;;;;;;13.50;99.90;;;;;;5082625;28;19920;-69
2022/10/26 09:24:26;;;;;;;;;;;13.50;99.90;;;;;;5076912;28;20208;-69
2022/10/26 09:26:54;;;;;;;;;;;13.60;99.90;;;;;;5081639;28;19932;-69
2022/10/26 09:29:23;;;;;;;;;;;13.80;99.90;;;;;;5083127;28;19924;-69
2022/10/26 09:31:50;;;;;;;;;;;13.80;99.90;;;;;;5082733;28;19927;-68
2022/10/26 09:34:23;;;;;;;;;;;13.90;99.90;;;;;;5082814;28;19924;-69
2022/10/26 09:36:52;;;;;;;;;;;14.00;99.90;;;;;;5080966;28;19926;-69
2022/10/26 09:39:22;;;;;;;;;;;14.00;99.90;;;;;;5082783;28;19921;-69
2022/10/26 09:41:53;;;;;;;;;;;14.10;99.90;;;;;;5082713;28;20004;-69
2022/10/26 09:44:25;;;;;;;;;;;14.20;99.90;;;;;;5066623;28;19944;-68
2022/10/26 09:46:55;;;;;;;;;;;14.20;99.90;;;;;;5075330;28;20070;-69
2022/10/26 09:49:29;;;;;;;;;;;14.40;99.90;;;;;;5075654;28;20270;-69
2022/10/26 09:51:55;;;;;;;;;;;14.50;99.90;;;;;;5082401;28;19936;-68
2022/10/26 09:54:22;;;;;;;;;;;14.50;99.90;;;;;;5082571;28;19987;-68
2022/10/26 09:56:52;;;;;;;;;;;14.60;99.90;;;;;;5082559;22;20000;-90
2022/10/26 09:59:20;;;;;;;;;;;14.70;99.90;;;;;;5053000;28;19972;-91
2022/10/26 10:01:47;;;;;;;;;;;14.80;99.90;;;;;;5049589;28;19921;-91
2022/10/26 10:04:19;;;;;;;;;;;14.80;99.90;;;;;;5049597;28;19948;-91
2022/10/26 10:06:46;;;;;;;;;;;14.80;99.90;;;;;;5058607;28;19920;-91
2022/10/26 10:09:14;;;;;;;;;;;14.90;99.90;;;;;;5065989;28;19920;-91
2022/10/26 10:11:41;;;;;;;;;;;14.90;99.90;;;;;;5065968;28;20026;-91
2022/10/26 10:14:13;;;;;;;;;;;15.00;99.90;;;;;;5065808;28;19941;-91
2022/10/26 10:16:40;;;;;;;;;;;15.00;99.90;;;;;;5048676;28;19956;-91
2022/10/26 10:19:20;;;;;;;;;;;15.00;99.90;;;;;;5045836;28;19953;-91
2022/10/26 10:21:49;;;;;;;;;;;15.10;99.90;;;;;;5062255;28;20116;-91
2022/10/26 10:24:24;;;;;;;;;;;15.10;99.90;;;;;;5065687;28;20227;-91
2022/10/26 10:26:58;;;;;;;;;;;15.20;99.90;;;;;;5047268;28;19992;-91
2022/10/26 10:29:26;;;;;;;;;;;15.20;99.90;;;;;;5045405;28;19956;-91
2022/10/26 10:31:57;;;;;;;;;;;15.30;99.90;;;;;;5045450;28;19945;-91
2022/10/26 10:34:23;;;;;;;;;;;15.40;99.90;;;;;;5045407;28;19927;-91
2022/10/26 10:36:50;;;;;;;;;;;15.50;99.90;;;;;;5043999;28;19945;-91
2022/10/26 10:39:27;;;;;;;;;;;15.50;99.90;;;;;;5044107;28;19963;-91
2022/10/26 10:41:54;;;;;;;;;;;15.60;99.90;;;;;;5043980;28;19963;-91
2022/10/26 10:44:23;;;;;;;;;;;15.70;99.90;;;;;;5060798;28;19957;-91
2022/10/26 10:46:59;;;;;;;;;;;15.70;99.90;;;;;;5055177;28;19921;-92
2022/10/26 10:49:27;;;;;;;;;;;15.80;99.90;;;;;;5061365;28;20250;-92
2022/10/26 10:51:55;;;;;;;;;;;15.80;99.90;;;;;;5064855;28;19927;-91
2022/10/26 10:54:23;;;;;;;;;;;15.90;99.90;;;;;;5064802;28;19988;-91
2022/10/26 10:56:51;;;;;;;;;;;15.90;99.90;;;;;;5053980;28;19968;-91
2022/10/26 10:59:39;;;;;;;;;;;16.10;99.90;;;;;;5063598;28;20007;-91
2022/10/26 11:02:22;;;;;;;;;;;16.10;99.90;;;;;;5065138;28;19948;-92
2022/10/26 11:04:59;;;;;;;;;;;16.30;99.90;;;;;;5063900;28;19980;-91
2022/10/26 11:07:26;;;;;;;;;;;16.30;99.90;;;;;;5045501;28;19921;-91
2022/10/26 11:09:54;;;;;;;;;;;16.50;99.90;;;;;;5044453;28;19988;-92
2022/10/26 11:12:23;;;;;;;;;;;16.50;99.90;;;;;;5045032;28;20012;-91
2022/10/26 11:14:53;;;;;;;;;;;16.60;99.90;;;;;;5043869;28;20098;-91
2022/10/26 11:17:22;;;;;;;;;;;16.60;99.90;;;;;;5044828;28;19955;-91
2022/10/26 11:19:53;;;;;;;;;;;16.60;99.90;;;;;;5044858;28;19921;-90
2022/10/26 11:22:23;;;;;;;;;;;16.60;99.90;;;;;;5046796;28;20220;-90
2022/10/26 11:24:52;;;;;;;;;;;16.70;99.90;;;;;;5045510;28;19929;-92
2022/10/26 11:27:21;;;;;;;;;;;16.80;99.90;;;;;;5045337;28;19948;-91
2022/10/26 11:29:53;;;;;;;;;;;16.80;99.90;;;;;;5056626;28;19988;-91
2022/10/26 11:32:22;;;;;;;;;;;16.90;99.90;;;;;;5064846;28;19920;-91
2022/10/26 11:34:52;;;;;;;;;;;17.00;99.90;;;;;;5063567;28;20119;-92
2022/10/26 11:37:23;;;;;;;;;;;17.00;99.90;;;;;;5064138;28;19947;-91
2022/10/26 11:39:53;;;;;;;;;;;17.10;99.90;;;;;;5050419;28;19928;-91
2022/10/26 11:42:24;;;;;;;;;;;17.10;99.90;;;;;;5042807;28;19921;-91
2022/10/26 11:44:54;;;;;;;;;;;17.20;99.90;;;;;;5050868;28;19956;-91
2022/10/26 11:47:24;;;;;;;;;;;17.30;99.90;;;;;;5069650;28;19952;-90
2022/10/26 11:49:53;;;;;;;;;;;17.30;99.90;;;;;;5063352;28;20238;-90
2022/10/26 11:52:22;;;;;;;;;;;17.40;99.90;;;;;;5063909;28;19983;-90
2022/10/26 11:54:51;;;;;;;;;;;17.50;99.90;;;;;;5062706;28;19921;-91
2022/10/26 11:57:19;;;;;;;;;;;17.60;99.90;;;;;;5063602;28;19921;-91
2022/10/26 11:59:48;;;;;;;;;;;17.70;99.90;;;;;;5054497;28;20443;-91
2022/10/26 12:02:15;;;;;;;;;;;17.70;99.90;;;;;;5064169;28;20008;-91
2022/10/26 12:04:45;;;;;;;;;;;17.70;99.90;;;;;;5063072;28;19959;-91
2022/10/26 12:07:15;;;;;;;;;;;17.80;99.90;;;;;;5063617;28;19944;-91
2022/10/26 12:09:43;;;;;;;;;;;17.90;99.90;;;;;;5053759;28;19948;-91
2022/10/26 12:12:14;;;;;;;;;;;18.20;99.90;;;;;;5043997;28;20072;-91
2022/10/26 12:14:43;;;;;;;;;;;18.50;99.90;;;;;;5044283;28;19992;-91
2022/10/26 12:17:11;;;;;;;;;;;18.70;99.90;;;;;;5041187;28;19996;-90
2022/10/26 12:19:42;;;;;;;;;;;18.80;99.90;;;;;;5043445;28;19945;-92
2022/10/26 12:22:11;;;;;;;;;;;18.70;99.90;;;;;;5044085;28;20127;-91
2022/10/26 12:24:42;;;;;;;;;;;18.70;99.90;;;;;;5049003;28;19959;-91
2022/10/26 12:27:28;;;;;;;;;;;18.60;99.90;;;;;;5054343;28;19960;-91
2022/10/26 12:30:14;;;;;;;;;;;18.60;99.90;;;;;;5063658;28;19988;-92
2022/10/26 12:32:50;;;;;;;;;;;18.70;99.90;;;;;;5063956;28;19921;-91
2022/10/26 12:35:31;;;;;;;;;;;18.60;99.90;;;;;;5056650;28;20004;-91
2022/10/26 12:38:00;;;;;;;;;;;18.60;99.90;;;;;;5052979;28;19988;-90
2022/10/26 12:40:38;;;;;;;;;;;18.60;99.90;;;;;;5048802;28;19941;-91
2022/10/26 12:43:20;;;;;;;;;;;18.60;99.90;;;;;;5054984;28;19921;-91
2022/10/26 12:45:47;;;;;;;;;;;18.60;99.90;;;;;;5052711;28;20197;-91
2022/10/26 12:48:21;;;;;;;;;;;18.60;99.90;;;;;;5045133;28;19921;-91
2022/10/26 12:50:48;;;;;;;;;;;18.60;99.90;;;;;;5043975;28;20180;-91
2022/10/26 12:53:17;;;;;;;;;;;18.60;99.90;;;;;;5049849;28;19984;-91
2022/10/26 12:56:02;;;;;;;;;;;18.60;99.90;;;;;;5064202;28;19921;-91
2022/10/26 12:58:47;;;;;;;;;;;18.60;99.90;;;;;;5063747;28;20199;-91
2022/10/26 13:01:28;;;;;;;;;;;18.70;99.90;;;;;;5061772;28;19988;-92
2022/10/26 13:03:59;;;;;;;;;;;18.80;99.90;;;;;;5043015;28;19993;-91
2022/10/26 13:06:35;;;;;;;;;;;18.90;99.90;;;;;;5044324;28;19922;-91
2022/10/26 13:09:13;;;;;;;;;;;18.90;99.90;;;;;;5061280;28;19992;-92
2022/10/26 13:11:43;;;;;;;;;;;18.90;99.90;;;;;;5063193;28;19948;-92
2022/10/26 13:14:18;;;;;;;;;;;18.80;99.90;;;;;;5063214;28;19948;-92
2022/10/26 13:16:45;;;;;;;;;;;19.00;99.90;;;;;;5059729;28;20000;-91
2022/10/26 13:19:22;;;;;;;;;;;19.30;99.90;;;;;;5069840;28;19927;-92
2022/10/26 13:21:49;;;;;;;;;;;19.60;99.90;;;;;;5060236;28;20223;-91
2022/10/26 13:24:19;;;;;;;;;;;19.90;99.90;;;;;;5062529;28;20227;-91
2022/10/26 13:27:04;;;;;;;;;;;20.20;99.90;;;;;;5060710;28;20278;-91
2022/10/26 13:29:31;;;;;;;;;;;20.40;99.90;;;;;;5042858;28;19984;-91
2022/10/26 13:31:58;;;;;;;;;;;20.40;99.90;;;;;;5067107;28;19960;-91
2022/10/26 13:34:28;;;;;;;;;;;20.50;99.90;;;;;;5063155;28;20171;-91
2022/10/26 13:36:59;;;;;;;;;;;20.50;99.90;;;;;;5074434;28;19974;-92
2022/10/26 13:39:30;;;;;;;;;;;20.40;99.90;;;;;;5072138;28;19948;-91
2022/10/26 13:41:58;;;;;;;;;;;20.30;99.90;;;;;;5079144;28;19944;-91
2022/10/26 13:44:26;;;;;;;;;;;20.40;99.90;;;;;;5084462;28;20192;-90
2022/10/26 13:46:56;;;;;;;;;;;20.50;99.90;;;;;;5071392;28;19920;-91
2022/10/26 13:49:24;;;;;;;;;;;20.50;99.90;;;;;;5063906;28;19992;-91
2022/10/26 13:51:52;;;;;;;;;;;20.50;99.90;;;;;;5066080;28;20246;-90
2022/10/26 13:54:21;;;;;;;;;;;20.50;99.90;;;;;;5081888;28;20206;-91
2022/10/26 13:56:57;;;;;;;;;;;20.60;99.90;;;;;;5071232;28;19951;-91
2022/10/26 13:59:25;;;;;;;;;;;20.70;99.90;;;;;;5070940;28;19951;-91
2022/10/26 14:02:05;;;;;;;;;;;20.80;99.90;;;;;;5069906;28;19940;-91
2022/10/26 14:04:32;;;;;;;;;;;20.80;99.90;;;;;;5070360;28;19920;-90
2022/10/26 14:06:58;;;;;;;;;;;21.00;99.90;;;;;;5065676;28;20001;-91
2022/10/26 14:09:25;;;;;;;;;;;21.00;99.90;;;;;;5065948;28;19948;-91
2022/10/26 14:11:57;;;;;;;;;;;21.00;99.90;;;;;;5077939;28;19991;-91
2022/10/26 14:14:24;;;;;;;;;;;21.10;99.90;;;;;;5062667;28;19943;-91
2022/10/26 14:16:52;;;;;;;;;;;21.00;99.90;;;;;;5079472;28;19940;-90
2022/10/26 14:19:22;;;;;;;;;;;20.70;99.90;;;;;;5065865;28;19984;-90
2022/10/26 14:21:49;;;;;;;;;;;20.40;99.90;;;;;;5066546;28;19948;-90
2022/10/26 14:24:20;;;;;;;;;;;20.20;99.90;;;;;;5079983;28;19921;-90
2022/10/26 14:26:51;;;;;;;;;;;20.00;99.90;;;;;;5083440;28;19909;-95
2022/10/26 14:29:19;;;;;;;;;;;19.90;99.90;;;;;;5108495;22;20317;-72
2022/10/26 14:31:48;;;;;;;;;;;19.80;99.90;;;;;;5099632;28;19928;-71
2022/10/26 14:34:14;;;;;;;;;;;19.80;99.90;;;;;;5106417;28;19920;-71
2022/10/26 14:36:44;;;;;;;;;;;19.70;99.90;;;;;;5105535;28;20114;-72